createdAt,value
2022-10-23T00:00:45.777Z,14.36
2022-10-23T00:01:50.808Z,14.35
2022-10-23T00:02:53.455Z,14.34
2022-10-23T00:04:05.124Z,14.34
2022-10-23T00:05:06.972Z,14.36
2022-10-23T00:06:11.681Z,14.35
2022-10-23T00:07:13.510Z,14.35
2022-10-23T00:08:17.861Z,14.31
2022-10-23T00:09:27.614Z,14.32
2022-10-23T00:10:29.420Z,14.33
2022-10-23T00:11:34.040Z,14.29
2022-10-23T00:12:36.189Z,14.32
2022-10-23T00:13:40.831Z,14.35
2022-10-23T00:14:42.577Z,14.37
2022-10-23T00:15:46.899Z,14.35
2022-10-23T00:16:48.745Z,14.38
2022-10-23T00:17:53.349Z,14.39
2022-10-23T00:18:55.111Z,14.39
2022-10-23T00:19:59.462Z,14.41
2022-10-23T00:21:01.324Z,14.41
2022-10-23T00:22:05.678Z,14.40
2022-10-23T00:23:07.481Z,14.42
2022-10-23T00:24:11.877Z,14.40
2022-10-23T00:25:13.720Z,14.44
2022-10-23T00:26:18.469Z,14.43
2022-10-23T00:27:20.249Z,14.44
2022-10-23T00:28:24.593Z,14.44
2022-10-23T00:29:28.204Z,14.45
2022-10-23T00:30:32.522Z,14.44
2022-10-23T00:31:34.274Z,14.45
2022-10-23T00:32:38.651Z,14.48
2022-10-23T00:33:40.740Z,14.47
2022-10-23T00:34:45.086Z,14.47
2022-10-23T00:35:47.317Z,14.46
2022-10-23T00:36:51.686Z,14.47
2022-10-23T00:37:53.457Z,14.47
2022-10-23T00:38:57.872Z,14.48
2022-10-23T00:39:59.726Z,14.47
2022-10-23T00:41:04.059Z,14.45
2022-10-23T00:42:05.822Z,14.46
2022-10-23T00:43:10.278Z,14.45
2022-10-23T00:44:34.585Z,14.46
2022-10-23T00:45:39.022Z,14.45
2022-10-23T00:46:40.884Z,14.46
2022-10-23T00:47:45.194Z,14.44
2022-10-23T00:48:46.994Z,14.43
2022-10-23T00:49:51.343Z,14.44
2022-10-23T00:50:53.077Z,14.43
2022-10-23T00:52:00.275Z,14.45
2022-10-23T00:53:02.958Z,14.44
2022-10-23T00:54:24.347Z,14.46
2022-10-23T00:55:26.774Z,14.47
2022-10-23T00:56:31.106Z,14.45
2022-10-23T00:57:32.952Z,14.47
2022-10-23T00:58:37.305Z,14.48
2022-10-23T00:59:39.347Z,14.46
2022-10-23T01:00:45.697Z,14.48
2022-10-23T01:01:48.443Z,14.47
2022-10-23T01:02:53.018Z,14.51
2022-10-23T01:03:54.789Z,14.50
2022-10-23T01:04:59.591Z,14.52
2022-10-23T01:06:07.562Z,14.53
2022-10-23T01:07:18.118Z,14.48
2022-10-23T01:08:23.769Z,14.50
2022-10-23T01:09:35.439Z,14.53
2022-10-23T01:10:45.345Z,14.53
2022-10-23T01:11:54.403Z,14.51
2022-10-23T01:13:15.180Z,14.53
2022-10-23T01:14:26.330Z,14.51
2022-10-23T01:15:47.947Z,14.51
2022-10-23T01:17:01.190Z,14.52
2022-10-23T01:18:09.234Z,14.55
2022-10-23T01:19:13.956Z,14.55
2022-10-23T01:20:18.557Z,14.57
2022-10-23T01:21:20.357Z,14.57
2022-10-23T01:22:30.502Z,14.58
2022-10-23T01:23:32.295Z,14.55
2022-10-23T01:24:39.960Z,14.57
2022-10-23T01:25:44.534Z,14.60
2022-10-23T01:26:53.322Z,14.62
2022-10-23T01:28:05.479Z,14.59
2022-10-23T01:29:09.774Z,14.59
2022-10-23T01:30:12.613Z,14.62
2022-10-23T01:31:21.866Z,14.63
2022-10-23T01:32:38.931Z,14.62
2022-10-23T01:33:48.135Z,14.64
2022-10-23T01:35:03.686Z,14.60
2022-10-23T01:36:09.150Z,14.64
2022-10-23T01:37:11.736Z,14.62
2022-10-23T01:38:23.761Z,14.66
2022-10-23T01:39:28.089Z,14.67
2022-10-23T01:40:47.588Z,14.65
2022-10-23T01:41:53.612Z,14.65
2022-10-23T01:43:05.461Z,14.68
2022-10-23T01:44:17.604Z,14.67
2022-10-23T01:45:24.448Z,14.69
2022-10-23T01:46:26.538Z,14.69
2022-10-23T01:47:31.392Z,14.71
2022-10-23T01:48:40.057Z,14.72
2022-10-23T01:49:44.808Z,14.69
2022-10-23T01:50:46.573Z,14.69
2022-10-23T01:51:52.514Z,14.70
2022-10-23T01:52:54.357Z,14.71
2022-10-23T01:53:59.168Z,14.71
2022-10-23T01:55:01.408Z,14.71
2022-10-23T01:56:09.521Z,14.72
2022-10-23T01:57:11.798Z,14.68
2022-10-23T01:58:16.545Z,14.67
2022-10-23T01:59:20.245Z,14.68
2022-10-23T02:00:24.725Z,14.69
2022-10-23T02:01:26.698Z,14.68
2022-10-23T02:02:31.316Z,14.67
2022-10-23T02:03:34.077Z,14.66
2022-10-23T02:04:41.706Z,14.69
2022-10-23T02:05:43.889Z,14.69
2022-10-23T02:06:48.440Z,14.70
2022-10-23T02:07:50.431Z,14.62
2022-10-23T02:08:54.755Z,14.64
2022-10-23T02:09:56.605Z,14.66
2022-10-23T02:11:11.668Z,14.65
2022-10-23T02:12:14.468Z,14.67
2022-10-23T02:13:21.453Z,14.66
2022-10-23T02:14:26.189Z,14.68
2022-10-23T02:15:40.853Z,14.69
2022-10-23T02:16:43.310Z,14.68
2022-10-23T02:17:48.250Z,14.70
2022-10-23T02:18:59.732Z,14.71
2022-10-23T02:20:13.022Z,14.72
2022-10-23T02:21:15.953Z,14.73
2022-10-23T02:22:26.015Z,14.71
2022-10-23T02:23:27.810Z,14.72
2022-10-23T02:24:34.757Z,14.70
2022-10-23T02:25:40.044Z,14.69
2022-10-23T02:27:04.940Z,14.64
2022-10-23T02:28:07.881Z,14.66
2022-10-23T02:29:21.694Z,14.66
2022-10-23T02:30:23.670Z,14.66
2022-10-23T02:31:43.768Z,14.67
2022-10-23T02:32:46.897Z,14.67
2022-10-23T02:33:51.281Z,14.67
2022-10-23T02:34:55.666Z,14.69
2022-10-23T02:35:57.646Z,14.68
2022-10-23T02:37:02.085Z,14.67
2022-10-23T02:38:04.250Z,14.68
2022-10-23T02:39:11.146Z,14.68
2022-10-23T02:40:13.002Z,14.70
2022-10-23T02:41:26.845Z,14.70
2022-10-23T02:42:33.923Z,14.72
2022-10-23T02:43:40.420Z,14.71
2022-10-23T02:45:03.195Z,14.65
2022-10-23T02:46:15.018Z,14.72
2022-10-23T02:47:22.367Z,14.72
2022-10-23T02:48:26.582Z,14.71
2022-10-23T02:49:38.513Z,14.73
2022-10-23T02:50:50.555Z,14.74
2022-10-23T02:51:55.524Z,14.72
2022-10-23T02:53:15.524Z,14.72
2022-10-23T02:54:44.081Z,14.70
2022-10-23T02:56:17.900Z,14.69
2022-10-23T02:57:19.750Z,14.69
2022-10-23T02:58:31.405Z,14.68
2022-10-23T02:59:36.558Z,14.68
2022-10-23T03:00:41.891Z,14.69
2022-10-23T03:01:52.478Z,14.69
2022-10-23T03:03:02.858Z,14.70
2022-10-23T03:04:08.635Z,14.71
2022-10-23T03:05:14.254Z,14.72
2022-10-23T03:06:16.512Z,14.71
2022-10-23T03:07:21.357Z,14.71
2022-10-23T03:08:25.729Z,14.70
2022-10-23T03:09:27.509Z,14.71
2022-10-23T03:10:31.883Z,14.72
2022-10-23T03:11:33.644Z,14.75
2022-10-23T03:12:37.979Z,14.73
2022-10-23T03:13:43.315Z,14.72
2022-10-23T03:14:45.534Z,14.71
2022-10-23T03:15:50.008Z,14.68
2022-10-23T03:16:51.769Z,14.61
2022-10-23T03:17:56.124Z,14.62
2022-10-23T03:18:58.009Z,14.61
2022-10-23T03:20:02.607Z,14.59
2022-10-23T03:21:04.364Z,14.55
2022-10-23T03:22:12.059Z,14.52
2022-10-23T03:23:14.132Z,14.53
2022-10-23T03:24:18.460Z,14.52
2022-10-23T03:25:22.804Z,14.51
2022-10-23T03:26:24.550Z,14.50
2022-10-23T03:28:54.258Z,14.46
2022-10-23T03:29:57.793Z,14.46
2022-10-23T03:31:02.263Z,14.46
2022-10-23T03:32:04.380Z,14.47
2022-10-23T03:33:08.790Z,14.47
2022-10-23T03:34:11.607Z,14.46
2022-10-23T03:35:18.043Z,14.46
2022-10-23T03:36:22.679Z,14.46
2022-10-23T03:37:25.001Z,14.46
2022-10-23T03:38:29.377Z,14.46
2022-10-23T03:39:31.836Z,14.45
2022-10-23T03:40:36.174Z,14.45
2022-10-23T03:41:37.930Z,14.44
2022-10-23T03:42:42.331Z,14.44
2022-10-23T03:43:46.872Z,14.44
2022-10-23T03:44:51.278Z,14.42
2022-10-23T03:45:54.882Z,14.37
2022-10-23T03:47:01.242Z,14.33
2022-10-23T03:48:02.978Z,14.31
2022-10-23T03:49:09.647Z,14.27
2022-10-23T03:50:11.923Z,14.22
2022-10-23T03:51:16.317Z,14.15
2022-10-23T03:52:18.128Z,14.11
2022-10-23T03:53:22.591Z,14.02
2022-10-23T03:54:25.138Z,13.98
2022-10-23T03:55:29.768Z,13.93
2022-10-23T03:56:31.573Z,13.91
2022-10-23T03:57:37.136Z,13.89
2022-10-23T03:58:39.164Z,13.88
2022-10-23T03:59:44.527Z,13.89
2022-10-23T04:00:46.416Z,13.91
2022-10-23T04:01:51.093Z,13.93
2022-10-23T04:02:53.000Z,13.94
2022-10-23T04:03:57.513Z,13.94
2022-10-23T04:05:01.022Z,13.93
2022-10-23T04:06:07.070Z,13.95
2022-10-23T04:07:08.851Z,13.94
2022-10-23T04:08:17.639Z,13.93
2022-10-23T04:09:26.528Z,13.92
2022-10-23T04:10:28.381Z,13.91
2022-10-23T04:11:33.274Z,13.92
2022-10-23T04:12:35.178Z,13.88
2022-10-23T04:13:39.621Z,13.84
2022-10-23T04:14:44.047Z,13.76
2022-10-23T04:15:49.760Z,13.72
2022-10-23T04:16:54.510Z,13.63
2022-10-23T04:17:56.335Z,13.58
2022-10-23T04:19:00.701Z,13.45
2022-10-23T04:20:04.271Z,13.41
2022-10-23T04:21:08.737Z,13.38
2022-10-23T04:22:13.069Z,13.30
2022-10-23T04:23:15.063Z,13.24
2022-10-23T04:24:19.742Z,13.21
2022-10-23T04:25:24.219Z,13.17
2022-10-23T04:26:25.981Z,13.12
2022-10-23T04:27:30.457Z,13.05
2022-10-23T04:28:32.200Z,13.02
2022-10-23T04:29:37.111Z,12.99
2022-10-23T04:30:38.907Z,13.01
2022-10-23T04:31:43.674Z,13.04
2022-10-23T04:32:45.430Z,13.04
2022-10-23T04:33:49.790Z,13.02
2022-10-23T04:35:06.977Z,13.13
2022-10-23T04:36:09.176Z,13.17
2022-10-23T04:37:13.494Z,13.21
2022-10-23T04:38:15.248Z,13.25
2022-10-23T04:39:19.680Z,13.30
2022-10-23T04:40:22.024Z,13.32
2022-10-23T04:41:27.762Z,13.37
2022-10-23T04:42:32.194Z,13.41
2022-10-23T04:43:36.391Z,13.45
2022-10-23T04:44:41.321Z,13.49
2022-10-23T04:45:43.227Z,13.50
2022-10-23T04:46:47.662Z,13.54
2022-10-23T04:47:50.071Z,13.56
2022-10-23T04:48:54.461Z,13.58
2022-10-23T04:50:02.401Z,13.58
2022-10-23T04:51:25.197Z,13.61
2022-10-23T04:52:31.648Z,13.63
2022-10-23T04:53:44.756Z,13.66
2022-10-23T04:54:56.725Z,13.68
2022-10-23T04:56:19.067Z,13.70
2022-10-23T04:57:24.825Z,13.70
2022-10-23T04:58:37.130Z,13.74
2022-10-23T04:59:38.932Z,13.72
2022-10-23T05:00:43.321Z,13.75
2022-10-23T05:01:45.168Z,13.74
2022-10-23T05:02:51.115Z,13.76
2022-10-23T05:03:54.103Z,13.76
2022-10-23T05:04:58.463Z,13.74
2022-10-23T05:06:27.411Z,13.72
2022-10-23T05:07:55.168Z,13.75
2022-10-23T05:09:19.747Z,13.76
2022-10-23T05:10:41.631Z,13.77
2022-10-23T05:11:52.329Z,13.77
2022-10-23T05:12:54.577Z,13.77
2022-10-23T05:13:58.938Z,13.76
2022-10-23T05:15:02.414Z,13.77
2022-10-23T05:16:06.831Z,13.76
2022-10-23T05:17:27.520Z,13.76
2022-10-23T05:18:35.882Z,13.76
2022-10-23T05:19:42.058Z,13.74
2022-10-23T05:20:46.370Z,13.74
2022-10-23T05:21:48.620Z,13.70
2022-10-23T05:22:53.109Z,13.72
2022-10-23T05:25:33.071Z,13.69
2022-10-23T05:26:45.011Z,13.72
2022-10-23T05:27:49.385Z,13.77
2022-10-23T05:28:51.779Z,13.72
2022-10-23T05:29:56.280Z,13.70
2022-10-23T05:31:04.639Z,13.69
2022-10-23T05:32:09.606Z,13.71
2022-10-23T05:33:12.297Z,13.73
2022-10-23T05:34:20.372Z,13.70
2022-10-23T05:35:22.924Z,13.69
2022-10-23T05:36:28.461Z,13.73
2022-10-23T05:37:32.190Z,13.71
2022-10-23T05:38:50.454Z,13.75
2022-10-23T05:39:53.870Z,13.74
2022-10-23T05:40:58.697Z,13.73
2022-10-23T05:42:00.555Z,13.67
2022-10-23T05:43:04.913Z,13.73
2022-10-23T05:44:36.848Z,13.67
2022-10-23T05:46:00.625Z,13.67
2022-10-23T05:47:20.900Z,13.64
2022-10-23T05:48:52.647Z,13.59
2022-10-23T05:50:00.200Z,13.53
2022-10-23T05:51:33.909Z,13.44
2022-10-23T05:52:54.403Z,13.38
2022-10-23T05:54:24.849Z,13.31
2022-10-23T05:55:52.852Z,13.23
2022-10-23T05:57:15.009Z,13.18
2022-10-23T05:58:26.274Z,13.16
2022-10-23T05:59:50.611Z,13.11
2022-10-23T06:01:18.622Z,13.06
2022-10-23T06:02:37.319Z,13.02
2022-10-23T06:03:49.600Z,13.02
2022-10-23T06:04:51.898Z,12.98
2022-10-23T06:06:16.221Z,12.96
2022-10-23T06:07:25.491Z,12.94
2022-10-23T06:08:31.088Z,12.94
2022-10-23T06:09:32.962Z,12.93
2022-10-23T06:10:37.340Z,12.92
2022-10-23T06:11:42.261Z,12.91
2022-10-23T06:12:53.661Z,12.90
2022-10-23T06:15:20.749Z,12.92
2022-10-23T06:16:48.186Z,12.92
2022-10-23T06:17:50.107Z,12.93
2022-10-23T06:18:55.036Z,12.94
2022-10-23T06:20:00.899Z,12.95
2022-10-23T06:21:05.262Z,12.97
2022-10-23T06:22:07.137Z,13.00
2022-10-23T06:23:23.166Z,13.00
2022-10-23T06:24:53.575Z,13.04
2022-10-23T06:25:59.876Z,13.06
2022-10-23T06:27:12.450Z,13.11
2022-10-23T06:28:19.853Z,13.12
2022-10-23T06:29:25.159Z,13.16
2022-10-23T06:30:27.108Z,13.22
2022-10-23T06:31:31.592Z,13.25
2022-10-23T06:32:33.338Z,13.31
2022-10-23T06:33:47.306Z,13.39
2022-10-23T06:34:49.250Z,13.46
2022-10-23T06:35:53.590Z,13.53
2022-10-23T06:36:58.098Z,13.60
2022-10-23T06:38:10.672Z,13.69
2022-10-23T06:39:21.350Z,13.80
2022-10-23T06:40:47.121Z,13.94
2022-10-23T06:41:56.339Z,14.07
2022-10-23T06:43:18.988Z,14.18
2022-10-23T06:44:37.565Z,14.25
2022-10-23T06:45:44.062Z,14.29
2022-10-23T06:46:51.723Z,14.42
2022-10-23T06:48:11.735Z,14.52
2022-10-23T06:49:35.077Z,14.59
2022-10-23T06:50:38.052Z,14.63
2022-10-23T06:51:47.988Z,14.69
2022-10-23T06:52:51.457Z,14.73
2022-10-23T06:53:55.862Z,14.78
2022-10-23T06:55:29.812Z,14.87
2022-10-23T06:56:31.710Z,14.94
2022-10-23T06:57:37.381Z,15.00
2022-10-23T06:58:40.564Z,15.03
2022-10-23T06:59:51.985Z,15.09
2022-10-23T07:00:54.213Z,15.16
2022-10-23T07:01:58.608Z,15.19
2022-10-23T07:03:00.562Z,15.26
2022-10-23T07:04:04.962Z,15.29
2022-10-23T07:05:08.826Z,15.34
2022-10-23T07:06:17.506Z,15.42
2022-10-23T07:07:19.493Z,15.50
2022-10-23T07:08:26.072Z,15.58
2022-10-23T07:09:33.266Z,15.64
2022-10-23T07:10:52.240Z,15.73
2022-10-23T07:11:57.422Z,15.80
2022-10-23T07:13:10.746Z,15.81
2022-10-23T07:14:26.866Z,15.88
2022-10-23T07:15:35.411Z,15.93
2022-10-23T07:16:40.883Z,15.97
2022-10-23T07:17:43.982Z,15.99
2022-10-23T07:18:48.802Z,16.01
2022-10-23T07:20:14.036Z,16.04
2022-10-23T07:21:19.079Z,16.01
2022-10-23T07:22:21.117Z,16.05
2022-10-23T07:23:31.941Z,16.10
2022-10-23T07:24:37.237Z,16.13
2022-10-23T07:25:47.968Z,16.20
2022-10-23T07:26:55.971Z,16.28
2022-10-23T07:28:01.990Z,16.33
2022-10-23T07:29:05.629Z,16.44
2022-10-23T07:30:11.961Z,16.54
2022-10-23T07:31:25.662Z,16.59
2022-10-23T07:32:51.082Z,16.63
2022-10-23T07:34:14.161Z,16.69
2022-10-23T07:35:17.631Z,16.67
2022-10-23T07:36:36.055Z,16.70
2022-10-23T07:37:37.948Z,16.72
2022-10-23T07:38:42.813Z,16.78
2022-10-23T07:39:44.678Z,16.90
2022-10-23T07:40:49.239Z,16.99
2022-10-23T07:41:53.106Z,17.11
2022-10-23T07:42:57.553Z,17.20
2022-10-23T07:44:00.142Z,17.35
2022-10-23T07:45:04.925Z,17.47
2022-10-23T07:46:10.224Z,17.59
2022-10-23T07:47:14.349Z,17.69
2022-10-23T07:48:23.951Z,17.80
2022-10-23T07:49:34.982Z,17.85
2022-10-23T07:50:40.611Z,17.92
2022-10-23T07:51:50.429Z,18.03
2022-10-23T07:52:53.442Z,18.10
2022-10-23T07:54:00.772Z,18.19
2022-10-23T07:55:23.510Z,18.34
2022-10-23T07:56:32.738Z,18.49
2022-10-23T07:58:12.464Z,18.60
2022-10-23T07:59:19.582Z,18.60
2022-10-23T08:00:29.818Z,18.63
2022-10-23T08:01:47.254Z,18.65
2022-10-23T08:02:49.830Z,18.65
2022-10-23T08:03:54.298Z,18.64
2022-10-23T08:04:57.145Z,18.64
2022-10-23T08:06:06.789Z,18.63
2022-10-23T08:07:08.975Z,18.60
2022-10-23T08:08:19.861Z,18.56
2022-10-23T08:09:24.374Z,18.59
2022-10-23T08:10:29.839Z,18.59
2022-10-23T08:11:35.776Z,18.63
2022-10-23T08:12:42.972Z,18.63
2022-10-23T08:13:45.611Z,18.65
2022-10-23T08:14:50.249Z,18.66
2022-10-23T08:15:53.194Z,18.69
2022-10-23T08:17:15.963Z,18.72
2022-10-23T08:18:55.896Z,18.67
2022-10-23T08:19:58.122Z,18.64
2022-10-23T08:21:06.803Z,18.62
2022-10-23T08:22:09.419Z,18.59
2022-10-23T08:23:16.938Z,18.65
2022-10-23T08:24:21.683Z,18.67
2022-10-23T08:25:25.087Z,18.72
2022-10-23T08:26:30.822Z,18.76
2022-10-23T08:27:32.755Z,18.77
2022-10-23T08:28:37.201Z,18.72
2022-10-23T08:29:39.567Z,18.63
2022-10-23T08:30:44.079Z,18.57
2022-10-23T08:31:46.547Z,18.52
2022-10-23T08:33:02.874Z,18.45
2022-10-23T08:34:04.809Z,18.48
2022-10-23T08:35:09.748Z,18.50
2022-10-23T08:36:18.810Z,18.54
2022-10-23T08:37:23.385Z,18.53
2022-10-23T08:38:25.302Z,18.53
2022-10-23T08:39:30.017Z,18.51
2022-10-23T08:40:44.379Z,18.41
2022-10-23T08:42:23.727Z,18.34
2022-10-23T08:43:36.793Z,18.29
2022-10-23T08:45:07.216Z,18.29
2022-10-23T08:46:14.993Z,18.33
2022-10-23T08:47:47.123Z,18.39
2022-10-23T08:49:32.722Z,18.38
2022-10-23T08:50:41.871Z,18.42
2022-10-23T08:51:47.939Z,18.44
2022-10-23T08:53:09.741Z,18.44
2022-10-23T08:54:46.450Z,18.45
2022-10-23T08:55:57.419Z,18.52
2022-10-23T08:57:03.491Z,18.52
2022-10-23T08:58:29.543Z,18.56
2022-10-23T08:59:38.126Z,18.54
2022-10-23T09:00:42.635Z,18.59
2022-10-23T09:01:47.146Z,18.67
2022-10-23T09:02:53.341Z,18.81
2022-10-23T09:03:55.899Z,19.03
2022-10-23T09:05:00.600Z,19.28
2022-10-23T09:06:12.980Z,19.53
2022-10-23T09:07:17.850Z,19.81
2022-10-23T09:08:41.010Z,20.03
2022-10-23T09:09:51.840Z,20.31
2022-10-23T09:11:05.546Z,20.44
2022-10-23T09:12:07.390Z,20.52
2022-10-23T09:13:32.158Z,20.52
2022-10-23T09:14:34.079Z,20.54
2022-10-23T09:15:38.776Z,20.51
2022-10-23T09:16:49.822Z,20.52
2022-10-23T09:17:58.418Z,20.56
2022-10-23T09:19:00.332Z,20.55
2022-10-23T09:20:25.104Z,20.48
2022-10-23T09:21:27.866Z,20.37
2022-10-23T09:22:32.450Z,20.23
2022-10-23T09:23:34.282Z,20.00
2022-10-23T09:24:38.795Z,19.90
2022-10-23T09:25:43.783Z,19.79
2022-10-23T09:26:48.493Z,19.70
2022-10-23T09:27:56.180Z,19.62
2022-10-23T09:29:05.670Z,19.52
2022-10-23T09:30:10.603Z,19.44
2022-10-23T09:31:13.182Z,19.41
2022-10-23T09:32:17.649Z,19.33
2022-10-23T09:33:21.774Z,19.29
2022-10-23T09:34:30.398Z,19.26
2022-10-23T09:35:35.107Z,19.21
2022-10-23T09:36:37.239Z,19.29
2022-10-23T09:37:48.594Z,19.34
2022-10-23T09:38:51.545Z,19.49
2022-10-23T09:40:08.101Z,19.57
2022-10-23T09:41:32.908Z,19.63
2022-10-23T09:42:35.491Z,19.65
2022-10-23T09:43:40.032Z,19.69
2022-10-23T09:44:49.731Z,19.71
2022-10-23T09:46:06.260Z,19.66
2022-10-23T09:47:11.418Z,19.60
2022-10-23T09:48:20.135Z,19.61
2022-10-23T09:49:32.201Z,19.54
2022-10-23T09:50:34.083Z,19.50
2022-10-23T09:51:41.870Z,19.50
2022-10-23T09:52:46.303Z,19.45
2022-10-23T09:53:48.157Z,19.41
2022-10-23T09:54:59.380Z,19.33
2022-10-23T09:56:03.110Z,19.26
2022-10-23T09:57:09.513Z,19.26
2022-10-23T09:58:21.098Z,19.19
2022-10-23T09:59:27.323Z,19.20
2022-10-23T10:00:29.129Z,19.17
2022-10-23T10:01:36.246Z,19.20
2022-10-23T10:03:08.311Z,19.13
2022-10-23T10:04:19.083Z,19.06
2022-10-23T10:05:27.555Z,19.08
2022-10-23T10:06:32.490Z,19.06
2022-10-23T10:07:37.042Z,19.03
2022-10-23T10:08:47.812Z,18.97
2022-10-23T10:09:53.095Z,18.91
2022-10-23T10:10:58.798Z,18.86
2022-10-23T10:12:09.044Z,18.80
2022-10-23T10:13:20.113Z,18.69
2022-10-23T10:14:27.596Z,18.64
2022-10-23T10:15:34.917Z,18.63
2022-10-23T10:16:58.911Z,18.62
2022-10-23T10:18:01.268Z,18.63
2022-10-23T10:19:08.802Z,18.68
2022-10-23T10:20:33.938Z,18.71
2022-10-23T10:21:50.713Z,18.64
2022-10-23T10:22:56.929Z,18.66
2022-10-23T10:24:19.810Z,18.65
2022-10-23T10:25:34.210Z,18.63
2022-10-23T10:26:52.286Z,18.66
2022-10-23T10:28:04.118Z,18.71
2022-10-23T10:29:17.158Z,18.75
2022-10-23T10:30:22.531Z,18.71
2022-10-23T10:31:38.919Z,18.71
2022-10-23T10:32:44.462Z,18.72
2022-10-23T10:34:05.752Z,18.68
2022-10-23T10:35:12.946Z,18.62
2022-10-23T10:36:29.634Z,18.65
2022-10-23T10:37:34.618Z,18.63
2022-10-23T10:38:57.810Z,18.69
2022-10-23T10:40:02.441Z,18.73
2022-10-23T10:41:27.695Z,18.81
2022-10-23T10:42:39.375Z,18.86
2022-10-23T10:43:47.319Z,18.91
2022-10-23T10:44:50.960Z,18.87
2022-10-23T10:46:00.594Z,18.86
2022-10-23T10:47:21.383Z,18.74
2022-10-23T10:48:39.813Z,18.73
2022-10-23T10:49:58.985Z,18.59
2022-10-23T10:51:13.821Z,18.57
2022-10-23T10:52:18.640Z,18.52
2022-10-23T10:53:23.107Z,18.43
2022-10-23T10:54:33.671Z,18.28
2022-10-23T10:55:39.399Z,18.15
2022-10-23T10:56:42.546Z,18.10
2022-10-23T10:57:54.952Z,18.06
2022-10-23T10:59:02.666Z,18.07
2022-10-23T11:00:06.640Z,18.10
2022-10-23T11:01:17.451Z,18.04
2022-10-23T11:02:26.597Z,18.08
2022-10-23T11:03:37.594Z,18.08
2022-10-23T11:04:49.256Z,18.13
2022-10-23T11:05:51.253Z,18.10
2022-10-23T11:06:56.047Z,18.01
2022-10-23T11:08:28.451Z,18.04
2022-10-23T11:09:30.341Z,18.07
2022-10-23T11:10:36.054Z,18.10
2022-10-23T11:11:40.724Z,18.09
2022-10-23T11:12:45.599Z,18.13
2022-10-23T11:13:50.110Z,18.18
2022-10-23T11:14:52.085Z,18.23
2022-10-23T11:15:59.518Z,18.25
2022-10-23T11:17:24.373Z,18.30
2022-10-23T11:18:27.140Z,18.33
2022-10-23T11:19:43.700Z,18.37
2022-10-23T11:20:51.059Z,18.36
2022-10-23T11:22:02.617Z,18.41
2022-10-23T11:23:24.599Z,18.45
2022-10-23T11:24:29.082Z,18.51
2022-10-23T11:25:40.224Z,18.53
2022-10-23T11:26:47.344Z,18.67
2022-10-23T11:27:58.122Z,18.81
2022-10-23T11:29:19.093Z,18.99
2022-10-23T11:30:28.126Z,19.37
2022-10-23T11:31:39.849Z,19.66
2022-10-23T11:32:49.272Z,19.96
2022-10-23T11:34:00.419Z,20.26
2022-10-23T11:35:04.958Z,20.49
2022-10-23T11:36:20.367Z,20.65
2022-10-23T11:37:26.898Z,20.76
2022-10-23T11:38:35.923Z,20.86
2022-10-23T11:39:42.129Z,20.87
2022-10-23T11:40:54.167Z,20.80
2022-10-23T11:42:02.894Z,20.78
2022-10-23T11:43:05.348Z,20.69
2022-10-23T11:44:25.906Z,20.75
2022-10-23T11:45:32.318Z,20.77
2022-10-23T11:46:38.316Z,20.76
2022-10-23T11:47:40.818Z,20.75
2022-10-23T11:48:47.717Z,20.59
2022-10-23T11:49:49.666Z,20.56
2022-10-23T11:50:55.691Z,20.47
2022-10-23T11:52:05.146Z,20.42
2022-10-23T11:53:15.097Z,20.30
2022-10-23T11:54:24.979Z,20.22
2022-10-23T11:55:30.882Z,20.16
2022-10-23T11:56:34.356Z,20.08
2022-10-23T11:57:38.852Z,20.01
2022-10-23T11:58:41.457Z,19.86
2022-10-23T11:59:45.967Z,19.68
2022-10-23T12:01:00.235Z,19.50
2022-10-23T12:02:05.742Z,19.37
2022-10-23T12:03:15.042Z,19.31
2022-10-23T12:04:21.024Z,19.23
2022-10-23T12:05:22.870Z,19.19
2022-10-23T12:06:31.327Z,18.97
2022-10-23T12:07:33.946Z,18.85
2022-10-23T12:08:39.053Z,18.77
2022-10-23T12:09:43.626Z,18.76
2022-10-23T12:10:50.674Z,18.70
2022-10-23T12:12:24.629Z,18.75
2022-10-23T12:13:29.072Z,18.83
2022-10-23T12:14:38.557Z,18.83
2022-10-23T12:15:42.323Z,18.89
2022-10-23T12:16:46.894Z,18.93
2022-10-23T12:17:49.592Z,18.98
2022-10-23T12:19:01.852Z,19.08
2022-10-23T12:20:11.530Z,19.16
2022-10-23T12:21:18.766Z,19.16
2022-10-23T12:22:22.396Z,19.17
2022-10-23T12:23:27.773Z,19.19
2022-10-23T12:24:34.937Z,19.20
2022-10-23T12:25:48.479Z,19.10
2022-10-23T12:27:17.753Z,18.98
2022-10-23T12:28:29.813Z,18.94
2022-10-23T12:29:46.949Z,18.88
2022-10-23T12:30:51.663Z,18.72
2022-10-23T12:32:05.412Z,18.60
2022-10-23T12:33:28.663Z,18.43
2022-10-23T12:34:36.544Z,18.27
2022-10-23T12:35:48.942Z,18.20
2022-10-23T12:36:56.214Z,18.12
2022-10-23T12:38:04.559Z,17.96
2022-10-23T12:39:27.814Z,17.98
2022-10-23T12:40:30.422Z,17.98
2022-10-23T12:41:35.406Z,17.88
2022-10-23T12:42:37.323Z,17.87
2022-10-23T12:43:42.260Z,17.87
2022-10-23T12:44:44.127Z,17.87
2022-10-23T12:45:50.553Z,17.86
2022-10-23T12:46:59.806Z,17.81
2022-10-23T12:48:01.732Z,17.63
2022-10-23T12:49:07.032Z,17.72
2022-10-23T12:50:37.703Z,17.71
2022-10-23T12:51:40.084Z,17.76
2022-10-23T12:52:44.894Z,17.85
2022-10-23T12:53:48.916Z,17.90
2022-10-23T12:54:53.639Z,18.03
2022-10-23T12:57:28.437Z,18.17
2022-10-23T12:58:34.856Z,18.20
2022-10-23T12:59:42.876Z,18.24
2022-10-23T13:00:50.607Z,18.16
2022-10-23T13:01:55.581Z,18.15
2022-10-23T13:02:58.334Z,18.15
2022-10-23T13:04:26.227Z,18.11
2022-10-23T13:05:30.757Z,18.01
2022-10-23T13:06:32.620Z,18.00
2022-10-23T13:07:38.678Z,18.00
2022-10-23T13:08:42.646Z,17.96
2022-10-23T13:10:09.955Z,17.96
2022-10-23T13:11:20.049Z,17.94
2022-10-23T13:12:27.338Z,17.88
2022-10-23T13:13:29.227Z,17.87
2022-10-23T13:14:37.312Z,17.84
2022-10-23T13:15:42.193Z,17.78
2022-10-23T13:16:46.666Z,17.76
2022-10-23T13:17:55.816Z,17.71
2022-10-23T13:19:00.431Z,17.68
2022-10-23T13:20:17.614Z,17.68
2022-10-23T13:21:29.139Z,17.64
2022-10-23T13:22:31.058Z,17.56
2022-10-23T13:23:36.269Z,17.54
2022-10-23T13:24:40.431Z,17.47
2022-10-23T13:25:44.931Z,17.45
2022-10-23T13:26:46.883Z,17.45
2022-10-23T13:27:51.371Z,17.43
2022-10-23T13:28:53.293Z,17.40
2022-10-23T13:29:57.815Z,17.37
2022-10-23T13:31:07.421Z,17.34
2022-10-23T13:32:15.696Z,17.32
2022-10-23T13:33:27.618Z,17.22
2022-10-23T13:34:32.638Z,17.20
2022-10-23T13:35:34.666Z,17.16
2022-10-23T13:36:39.629Z,17.16
2022-10-23T13:39:12.047Z,17.12
2022-10-23T13:40:23.554Z,17.18
2022-10-23T13:41:25.630Z,17.05
2022-10-23T13:42:30.275Z,17.03
2022-10-23T13:43:32.361Z,17.05
2022-10-23T13:44:37.710Z,17.06
2022-10-23T13:45:40.771Z,17.02
2022-10-23T13:46:45.530Z,17.07
2022-10-23T13:47:50.015Z,17.09
2022-10-23T13:48:52.000Z,17.20
2022-10-23T13:49:57.731Z,17.22
2022-10-23T13:51:02.278Z,17.16
2022-10-23T13:52:07.196Z,17.24
2022-10-23T13:53:12.391Z,17.30
2022-10-23T13:54:18.238Z,17.43
2022-10-23T13:55:26.464Z,17.54
2022-10-23T13:56:28.417Z,17.62
2022-10-23T13:57:32.936Z,17.69
2022-10-23T13:58:34.872Z,17.72
2022-10-23T13:59:39.427Z,17.77
2022-10-23T14:00:43.417Z,17.80
2022-10-23T14:01:48.639Z,17.81
2022-10-23T14:02:50.785Z,17.77
2022-10-23T14:03:55.835Z,17.69
2022-10-23T14:04:57.721Z,17.68
2022-10-23T14:06:02.205Z,17.69
2022-10-23T14:07:04.060Z,17.68
2022-10-23T14:08:08.679Z,17.64
2022-10-23T14:09:14.954Z,17.53
2022-10-23T14:10:19.446Z,17.50
2022-10-23T14:11:21.612Z,17.46
2022-10-23T14:12:26.139Z,17.40
2022-10-23T14:13:28.019Z,17.37
2022-10-23T14:14:32.475Z,17.36
2022-10-23T14:15:34.404Z,17.33
2022-10-23T14:16:38.968Z,17.30
2022-10-23T14:17:40.976Z,17.26
2022-10-23T14:18:45.586Z,17.18
2022-10-23T14:19:47.452Z,17.18
2022-10-23T14:20:52.016Z,17.14
2022-10-23T14:21:56.651Z,17.10
2022-10-23T14:22:58.516Z,17.06
2022-10-23T14:24:02.975Z,17.03
2022-10-23T14:25:05.461Z,16.94
2022-10-23T14:26:11.175Z,16.93
2022-10-23T14:27:15.667Z,16.91
2022-10-23T14:28:17.595Z,16.88
2022-10-23T14:29:24.295Z,16.81
2022-10-23T14:30:26.479Z,16.79
2022-10-23T14:31:30.967Z,16.77
2022-10-23T14:32:32.974Z,16.78
2022-10-23T14:33:37.459Z,16.75
2022-10-23T14:34:42.883Z,16.76
2022-10-23T14:35:44.793Z,16.73
2022-10-23T14:36:50.238Z,16.69
2022-10-23T14:37:57.910Z,16.64
2022-10-23T14:39:02.437Z,16.62
2022-10-23T14:40:08.021Z,16.62
2022-10-23T14:41:10.794Z,16.60